sensor_id;sensor_type;location;lat;lon;timestamp;P1;durP1;ratioP1;P2;durP2;ratioP2
20073;SDS011;10197;54.282;10.078;2022-09-09T00:00:53;28.50;;;24.95;;
20073;SDS011;10197;54.282;10.078;2022-09-09T00:03:30;26.25;;;21.73;;
20073;SDS011;10197;54.282;10.078;2022-09-09T00:06:02;25.77;;;21.88;;
20073;SDS011;10197;54.282;10.078;2022-09-09T00:08:34;24.90;;;21.60;;
20073;SDS011;10197;54.282;10.078;2022-09-09T00:11:08;24.38;;;20.83;;
20073;SDS011;10197;54.282;10.078;2022-09-09T00:13:40;25.63;;;21.00;;
20073;SDS011;10197;54.282;10.078;2022-09-09T00:16:15;24.08;;;20.35;;
20073;SDS011;10197;54.282;10.078;2022-09-09T00:18:49;24.83;;;20.58;;
20073;SDS011;10197;54.282;10.078;2022-09-09T00:21:21;25.42;;;21.35;;
20073;SDS011;10197;54.282;10.078;2022-09-09T00:23:51;26.05;;;22.77;;
20073;SDS011;10197;54.282;10.078;2022-09-09T00:26:20;26.25;;;21.52;;
20073;SDS011;10197;54.282;10.078;2022-09-09T00:28:52;31.88;;;26.30;;
20073;SDS011;10197;54.282;10.078;2022-09-09T00:31:47;28.33;;;24.80;;
20073;SDS011;10197;54.282;10.078;2022-09-09T00:37:56;39.25;;;32.33;;
20073;SDS011;10197;54.282;10.078;2022-09-09T00:44:00;30.70;;;25.88;;
20073;SDS011;10197;54.282;10.078;2022-09-09T00:47:20;29.08;;;23.15;;
20073;SDS011;10197;54.282;10.078;2022-09-09T00:57:33;34.20;;;28.40;;
20073;SDS011;10197;54.282;10.078;2022-09-09T01:00:35;32.53;;;26.83;;
20073;SDS011;10197;54.282;10.078;2022-09-09T01:03:53;29.13;;;24.02;;
20073;SDS011;10197;54.282;10.078;2022-09-09T01:06:57;26.85;;;22.35;;
20073;SDS011;10197;54.282;10.078;2022-09-09T01:10:08;28.40;;;23.88;;
20073;SDS011;10197;54.282;10.078;2022-09-09T01:13:25;27.42;;;23.15;;
20073;SDS011;10197;54.282;10.078;2022-09-09T01:27:11;30.15;;;23.05;;
20073;SDS011;10197;54.282;10.078;2022-09-09T01:41:32;26.80;;;22.90;;
20073;SDS011;10197;54.282;10.078;2022-09-09T01:45:11;21.75;;;17.95;;
20073;SDS011;10197;54.282;10.078;2022-09-09T01:48:18;32.15;;;26.88;;
20073;SDS011;10197;54.282;10.078;2022-09-09T01:51:25;27.55;;;22.58;;
20073;SDS011;10197;54.282;10.078;2022-09-09T01:54:30;27.52;;;21.60;;
20073;SDS011;10197;54.282;10.078;2022-09-09T02:00:36;26.25;;;20.92;;
20073;SDS011;10197;54.282;10.078;2022-09-09T02:03:56;22.85;;;19.30;;
20073;SDS011;10197;54.282;10.078;2022-09-09T02:07:15;21.02;;;17.55;;
20073;SDS011;10197;54.282;10.078;2022-09-09T02:11:01;27.13;;;21.60;;
20073;SDS011;10197;54.282;10.078;2022-09-09T02:14:34;36.05;;;26.45;;
20073;SDS011;10197;54.282;10.078;2022-09-09T02:17:17;25.25;;;21.30;;
20073;SDS011;10197;54.282;10.078;2022-09-09T02:20:27;25.30;;;21.35;;
20073;SDS011;10197;54.282;10.078;2022-09-09T02:23:48;32.60;;;24.63;;
20073;SDS011;10197;54.282;10.078;2022-09-09T02:27:09;32.85;;;27.67;;
20073;SDS011;10197;54.282;10.078;2022-09-09T02:30:11;32.92;;;25.17;;
20073;SDS011;10197;54.282;10.078;2022-09-09T02:32:45;37.17;;;26.10;;
20073;SDS011;10197;54.282;10.078;2022-09-09T02:35:17;40.58;;;30.88;;
20073;SDS011;10197;54.282;10.078;2022-09-09T02:37:46;35.00;;;25.35;;
20073;SDS011;10197;54.282;10.078;2022-09-09T02:40:16;27.92;;;21.80;;
20073;SDS011;10197;54.282;10.078;2022-09-09T02:42:50;39.85;;;29.77;;
20073;SDS011;10197;54.282;10.078;2022-09-09T02:45:22;49.03;;;34.03;;
20073;SDS011;10197;54.282;10.078;2022-09-09T02:47:53;38.08;;;27.98;;
20073;SDS011;10197;54.282;10.078;2022-09-09T02:50:23;47.28;;;32.95;;
20073;SDS011;10197;54.282;10.078;2022-09-09T02:52:57;41.70;;;29.08;;
20073;SDS011;10197;54.282;10.078;2022-09-09T02:55:31;34.15;;;24.48;;
20073;SDS011;10197;54.282;10.078;2022-09-09T02:58:06;37.38;;;25.80;;
20073;SDS011;10197;54.282;10.078;2022-09-09T03:00:38;37.30;;;27.70;;
20073;SDS011;10197;54.282;10.078;2022-09-09T03:03:06;47.42;;;32.35;;
20073;SDS011;10197;54.282;10.078;2022-09-09T03:05:34;47.78;;;31.63;;
20073;SDS011;10197;54.282;10.078;2022-09-09T03:08:01;48.75;;;30.50;;
20073;SDS011;10197;54.282;10.078;2022-09-09T03:10:28;39.10;;;27.25;;
20073;SDS011;10197;54.282;10.078;2022-09-09T03:12:57;37.30;;;27.48;;
20073;SDS011;10197;54.282;10.078;2022-09-09T03:15:26;45.85;;;32.28;;
20073;SDS011;10197;54.282;10.078;2022-09-09T03:17:57;63.95;;;39.63;;
20073;SDS011;10197;54.282;10.078;2022-09-09T03:20:25;61.75;;;38.53;;
20073;SDS011;10197;54.282;10.078;2022-09-09T03:22:52;52.53;;;33.10;;
20073;SDS011;10197;54.282;10.078;2022-09-09T03:25:19;66.15;;;41.17;;
20073;SDS011;10197;54.282;10.078;2022-09-09T03:27:49;54.53;;;35.83;;
20073;SDS011;10197;54.282;10.078;2022-09-09T03:30:20;72.50;;;44.92;;
20073;SDS011;10197;54.282;10.078;2022-09-09T03:32:47;63.88;;;39.38;;
20073;SDS011;10197;54.282;10.078;2022-09-09T03:35:16;63.53;;;38.40;;
20073;SDS011;10197;54.282;10.078;2022-09-09T03:37:43;47.95;;;28.95;;
20073;SDS011;10197;54.282;10.078;2022-09-09T03:40:11;80.18;;;43.88;;
20073;SDS011;10197;54.282;10.078;2022-09-09T03:42:38;67.10;;;39.03;;
20073;SDS011;10197;54.282;10.078;2022-09-09T03:45:06;54.88;;;34.45;;
20073;SDS011;10197;54.282;10.078;2022-09-09T03:47:36;58.00;;;35.33;;
20073;SDS011;10197;54.282;10.078;2022-09-09T03:50:05;59.20;;;36.13;;
20073;SDS011;10197;54.282;10.078;2022-09-09T03:52:37;53.65;;;34.25;;
20073;SDS011;10197;54.282;10.078;2022-09-09T03:55:10;66.47;;;37.75;;
20073;SDS011;10197;54.282;10.078;2022-09-09T03:57:36;55.63;;;34.72;;
20073;SDS011;10197;54.282;10.078;2022-09-09T04:00:07;53.95;;;33.20;;
20073;SDS011;10197;54.282;10.078;2022-09-09T04:02:52;49.00;;;29.05;;
20073;SDS011;10197;54.282;10.078;2022-09-09T04:05:22;54.08;;;31.65;;
20073;SDS011;10197;54.282;10.078;2022-09-09T04:07:50;50.53;;;30.33;;
20073;SDS011;10197;54.282;10.078;2022-09-09T04:10:17;58.20;;;34.40;;
20073;SDS011;10197;54.282;10.078;2022-09-09T04:12:44;52.03;;;31.20;;
20073;SDS011;10197;54.282;10.078;2022-09-09T04:15:11;46.70;;;28.38;;
20073;SDS011;10197;54.282;10.078;2022-09-09T04:17:44;46.75;;;29.65;;
20073;SDS011;10197;54.282;10.078;2022-09-09T04:20:26;46.17;;;27.63;;
20073;SDS011;10197;54.282;10.078;2022-09-09T04:22:54;44.33;;;27.48;;
20073;SDS011;10197;54.282;10.078;2022-09-09T04:25:22;45.83;;;27.52;;
20073;SDS011;10197;54.282;10.078;2022-09-09T04:27:52;45.15;;;28.15;;
20073;SDS011;10197;54.282;10.078;2022-09-09T04:30:20;50.60;;;31.02;;
20073;SDS011;10197;54.282;10.078;2022-09-09T04:32:47;49.08;;;30.75;;
20073;SDS011;10197;54.282;10.078;2022-09-09T04:35:14;44.78;;;26.77;;
20073;SDS011;10197;54.282;10.078;2022-09-09T04:37:41;43.67;;;26.85;;
20073;SDS011;10197;54.282;10.078;2022-09-09T04:40:09;49.63;;;30.75;;
20073;SDS011;10197;54.282;10.078;2022-09-09T04:42:36;42.17;;;27.30;;
20073;SDS011;10197;54.282;10.078;2022-09-09T04:45:04;42.97;;;27.55;;
20073;SDS011;10197;54.282;10.078;2022-09-09T04:47:32;48.58;;;30.45;;
20073;SDS011;10197;54.282;10.078;2022-09-09T04:50:00;55.80;;;34.17;;
20073;SDS011;10197;54.282;10.078;2022-09-09T04:52:28;47.35;;;29.98;;
20073;SDS011;10197;54.282;10.078;2022-09-09T04:54:55;57.00;;;36.00;;
20073;SDS011;10197;54.282;10.078;2022-09-09T04:57:23;45.22;;;30.58;;
20073;SDS011;10197;54.282;10.078;2022-09-09T04:59:50;52.40;;;31.92;;
20073;SDS011;10197;54.282;10.078;2022-09-09T05:02:17;51.63;;;33.45;;
20073;SDS011;10197;54.282;10.078;2022-09-09T05:04:44;49.10;;;32.70;;
20073;SDS011;10197;54.282;10.078;2022-09-09T05:07:12;58.47;;;37.55;;
20073;SDS011;10197;54.282;10.078;2022-09-09T05:09:39;47.00;;;30.35;;
20073;SDS011;10197;54.282;10.078;2022-09-09T05:12:06;55.60;;;34.75;;
20073;SDS011;10197;54.282;10.078;2022-09-09T05:14:36;54.92;;;35.33;;
20073;SDS011;10197;54.282;10.078;2022-09-09T05:17:04;49.00;;;32.55;;
20073;SDS011;10197;54.282;10.078;2022-09-09T05:19:33;59.92;;;37.42;;
20073;SDS011;10197;54.282;10.078;2022-09-09T05:22:01;54.65;;;33.60;;
20073;SDS011;10197;54.282;10.078;2022-09-09T05:24:38;56.92;;;36.85;;
20073;SDS011;10197;54.282;10.078;2022-09-09T05:27:06;49.05;;;30.77;;
20073;SDS011;10197;54.282;10.078;2022-09-09T05:29:33;45.22;;;30.27;;
20073;SDS011;10197;54.282;10.078;2022-09-09T05:32:02;45.47;;;29.63;;
20073;SDS011;10197;54.282;10.078;2022-09-09T05:34:30;42.05;;;29.48;;
20073;SDS011;10197;54.282;10.078;2022-09-09T05:36:57;49.88;;;34.17;;
20073;SDS011;10197;54.282;10.078;2022-09-09T05:39:25;43.97;;;30.27;;
20073;SDS011;10197;54.282;10.078;2022-09-09T05:41:51;39.85;;;27.63;;
20073;SDS011;10197;54.282;10.078;2022-09-09T05:44:19;35.08;;;25.10;;
20073;SDS011;10197;54.282;10.078;2022-09-09T05:46:49;45.03;;;30.88;;
20073;SDS011;10197;54.282;10.078;2022-09-09T05:49:17;40.58;;;29.30;;
20073;SDS011;10197;54.282;10.078;2022-09-09T05:51:45;42.75;;;27.08;;
20073;SDS011;10197;54.282;10.078;2022-09-09T05:54:15;37.03;;;24.88;;
20073;SDS011;10197;54.282;10.078;2022-09-09T05:56:46;40.20;;;27.55;;
20073;SDS011;10197;54.282;10.078;2022-09-09T05:59:15;39.13;;;26.92;;
20073;SDS011;10197;54.282;10.078;2022-09-09T06:01:43;54.28;;;33.50;;
20073;SDS011;10197;54.282;10.078;2022-09-09T06:04:20;41.17;;;27.27;;
20073;SDS011;10197;54.282;10.078;2022-09-09T06:06:49;48.50;;;30.42;;
20073;SDS011;10197;54.282;10.078;2022-09-09T06:09:19;48.53;;;29.83;;
20073;SDS011;10197;54.282;10.078;2022-09-09T06:11:46;46.30;;;29.75;;
20073;SDS011;10197;54.282;10.078;2022-09-09T06:14:14;45.50;;;29.55;;
20073;SDS011;10197;54.282;10.078;2022-09-09T06:16:45;46.38;;;29.80;;
20073;SDS011;10197;54.282;10.078;2022-09-09T06:19:25;44.30;;;27.30;;
20073;SDS011;10197;54.282;10.078;2022-09-09T06:21:55;50.42;;;32.05;;
20073;SDS011;10197;54.282;10.078;2022-09-09T06:24:24;53.50;;;32.00;;
20073;SDS011;10197;54.282;10.078;2022-09-09T06:26:51;48.65;;;32.58;;
20073;SDS011;10197;54.282;10.078;2022-09-09T06:29:22;49.30;;;30.15;;
20073;SDS011;10197;54.282;10.078;2022-09-09T06:31:50;44.40;;;28.40;;
20073;SDS011;10197;54.282;10.078;2022-09-09T06:34:20;44.80;;;28.38;;
20073;SDS011;10197;54.282;10.078;2022-09-09T06:36:53;50.67;;;31.45;;
20073;SDS011;10197;54.282;10.078;2022-09-09T06:39:23;49.72;;;30.45;;
20073;SDS011;10197;54.282;10.078;2022-09-09T06:41:49;41.05;;;27.08;;
20073;SDS011;10197;54.282;10.078;2022-09-09T06:44:41;36.53;;;25.33;;
20073;SDS011;10197;54.282;10.078;2022-09-09T06:47:12;50.05;;;31.00;;
20073;SDS011;10197;54.282;10.078;2022-09-09T06:49:41;46.45;;;27.40;;
20073;SDS011;10197;54.282;10.078;2022-09-09T06:52:11;41.53;;;25.95;;
20073;SDS011;10197;54.282;10.078;2022-09-09T06:54:38;45.70;;;28.45;;
20073;SDS011;10197;54.282;10.078;2022-09-09T06:57:05;43.67;;;28.40;;
20073;SDS011;10197;54.282;10.078;2022-09-09T06:59:33;43.25;;;28.38;;
20073;SDS011;10197;54.282;10.078;2022-09-09T07:02:01;46.50;;;28.67;;
20073;SDS011;10197;54.282;10.078;2022-09-09T07:04:29;46.67;;;28.20;;
20073;SDS011;10197;54.282;10.078;2022-09-09T07:06:56;45.72;;;29.08;;
20073;SDS011;10197;54.282;10.078;2022-09-09T07:09:26;44.60;;;27.60;;
20073;SDS011;10197;54.282;10.078;2022-09-09T07:11:55;35.55;;;24.77;;
20073;SDS011;10197;54.282;10.078;2022-09-09T07:14:24;36.70;;;25.15;;
20073;SDS011;10197;54.282;10.078;2022-09-09T07:16:59;39.35;;;26.08;;
20073;SDS011;10197;54.282;10.078;2022-09-09T07:19:30;47.67;;;30.77;;
20073;SDS011;10197;54.282;10.078;2022-09-09T07:21:57;46.40;;;33.42;;
20073;SDS011;10197;54.282;10.078;2022-09-09T07:24:26;40.40;;;26.50;;
20073;SDS011;10197;54.282;10.078;2022-09-09T07:26:56;43.80;;;30.75;;
20073;SDS011;10197;54.282;10.078;2022-09-09T07:29:22;37.88;;;26.70;;
20073;SDS011;10197;54.282;10.078;2022-09-09T07:31:50;37.67;;;27.27;;
20073;SDS011;10197;54.282;10.078;2022-09-09T07:34:22;36.55;;;25.17;;
20073;SDS011;10197;54.282;10.078;2022-09-09T07:36:50;39.00;;;29.15;;
20073;SDS011;10197;54.282;10.078;2022-09-09T07:39:18;39.95;;;27.45;;
20073;SDS011;10197;54.282;10.078;2022-09-09T07:41:50;37.97;;;27.55;;
20073;SDS011;10197;54.282;10.078;2022-09-09T07:44:21;45.70;;;32.05;;
20073;SDS011;10197;54.282;10.078;2022-09-09T07:47:03;37.83;;;26.70;;
20073;SDS011;10197;54.282;10.078;2022-09-09T07:49:37;43.70;;;29.80;;
20073;SDS011;10197;54.282;10.078;2022-09-09T07:52:05;42.45;;;30.83;;
20073;SDS011;10197;54.282;10.078;2022-09-09T07:54:32;38.75;;;26.20;;
20073;SDS011;10197;54.282;10.078;2022-09-09T07:57:03;34.53;;;24.70;;
20073;SDS011;10197;54.282;10.078;2022-09-09T07:59:32;31.73;;;23.73;;
20073;SDS011;10197;54.282;10.078;2022-09-09T08:02:02;35.53;;;25.85;;
20073;SDS011;10197;54.282;10.078;2022-09-09T08:04:31;33.75;;;24.45;;
20073;SDS011;10197;54.282;10.078;2022-09-09T08:06:59;31.75;;;25.00;;
20073;SDS011;10197;54.282;10.078;2022-09-09T08:09:31;26.15;;;20.27;;
20073;SDS011;10197;54.282;10.078;2022-09-09T08:12:32;27.10;;;20.67;;
20073;SDS011;10197;54.282;10.078;2022-09-09T08:14:59;30.65;;;23.30;;
20073;SDS011;10197;54.282;10.078;2022-09-09T08:17:30;28.08;;;20.30;;
20073;SDS011;10197;54.282;10.078;2022-09-09T08:20:00;25.92;;;19.90;;
20073;SDS011;10197;54.282;10.078;2022-09-09T08:22:31;27.10;;;21.20;;
20073;SDS011;10197;54.282;10.078;2022-09-09T08:24:58;32.25;;;24.13;;
20073;SDS011;10197;54.282;10.078;2022-09-09T08:27:25;29.58;;;22.17;;
20073;SDS011;10197;54.282;10.078;2022-09-09T08:29:54;30.17;;;22.38;;
20073;SDS011;10197;54.282;10.078;2022-09-09T08:32:22;32.65;;;24.33;;
20073;SDS011;10197;54.282;10.078;2022-09-09T08:34:49;26.48;;;19.30;;
20073;SDS011;10197;54.282;10.078;2022-09-09T08:37:20;30.40;;;24.00;;
20073;SDS011;10197;54.282;10.078;2022-09-09T08:39:47;26.17;;;21.42;;
20073;SDS011;10197;54.282;10.078;2022-09-09T08:42:17;26.33;;;21.35;;
20073;SDS011;10197;54.282;10.078;2022-09-09T08:45:09;24.90;;;20.65;;
20073;SDS011;10197;54.282;10.078;2022-09-09T08:47:44;23.42;;;18.77;;
20073;SDS011;10197;54.282;10.078;2022-09-09T08:50:20;25.60;;;18.65;;
20073;SDS011;10197;54.282;10.078;2022-09-09T08:52:54;27.30;;;23.40;;
20073;SDS011;10197;54.282;10.078;2022-09-09T08:55:25;24.50;;;20.23;;
20073;SDS011;10197;54.282;10.078;2022-09-09T08:57:58;25.27;;;17.35;;
20073;SDS011;10197;54.282;10.078;2022-09-09T09:00:30;28.42;;;21.25;;
20073;SDS011;10197;54.282;10.078;2022-09-09T09:03:05;24.02;;;17.38;;
20073;SDS011;10197;54.282;10.078;2022-09-09T09:05:42;28.38;;;25.40;;
20073;SDS011;10197;54.282;10.078;2022-09-09T09:08:17;28.23;;;23.63;;
20073;SDS011;10197;54.282;10.078;2022-09-09T09:10:48;25.80;;;22.95;;
20073;SDS011;10197;54.282;10.078;2022-09-09T09:13:20;30.20;;;26.83;;
20073;SDS011;10197;54.282;10.078;2022-09-09T09:15:58;30.25;;;27.02;;
20073;SDS011;10197;54.282;10.078;2022-09-09T09:18:28;25.73;;;22.60;;
20073;SDS011;10197;54.282;10.078;2022-09-09T09:20:57;30.70;;;27.27;;
20073;SDS011;10197;54.282;10.078;2022-09-09T09:23:30;27.35;;;24.17;;
20073;SDS011;10197;54.282;10.078;2022-09-09T09:26:00;22.85;;;20.55;;
20073;SDS011;10197;54.282;10.078;2022-09-09T09:28:29;34.05;;;28.67;;
20073;SDS011;10197;54.282;10.078;2022-09-09T09:31:06;29.92;;;24.83;;
20073;SDS011;10197;54.282;10.078;2022-09-09T09:33:38;20.77;;;18.40;;
20073;SDS011;10197;54.282;10.078;2022-09-09T09:36:11;25.05;;;22.35;;
20073;SDS011;10197;54.282;10.078;2022-09-09T09:38:50;21.70;;;18.13;;
20073;SDS011;10197;54.282;10.078;2022-09-09T09:41:28;21.63;;;19.38;;
20073;SDS011;10197;54.282;10.078;2022-09-09T09:43:56;23.77;;;21.23;;
20073;SDS011;10197;54.282;10.078;2022-09-09T09:46:25;18.60;;;16.52;;
20073;SDS011;10197;54.282;10.078;2022-09-09T09:48:56;19.17;;;16.58;;
20073;SDS011;10197;54.282;10.078;2022-09-09T09:51:24;18.08;;;14.52;;
20073;SDS011;10197;54.282;10.078;2022-09-09T09:53:51;20.05;;;17.10;;
20073;SDS011;10197;54.282;10.078;2022-09-09T09:56:26;16.90;;;15.13;;
20073;SDS011;10197;54.282;10.078;2022-09-09T09:58:54;17.77;;;15.18;;
20073;SDS011;10197;54.282;10.078;2022-09-09T10:01:30;16.52;;;14.82;;
20073;SDS011;10197;54.282;10.078;2022-09-09T10:04:02;19.92;;;15.40;;
20073;SDS011;10197;54.282;10.078;2022-09-09T10:06:40;15.55;;;11.18;;
20073;SDS011;10197;54.282;10.078;2022-09-09T10:09:18;12.25;;;11.07;;
20073;SDS011;10197;54.282;10.078;2022-09-09T10:11:49;13.70;;;11.50;;
20073;SDS011;10197;54.282;10.078;2022-09-09T10:14:23;12.80;;;11.32;;
20073;SDS011;10197;54.282;10.078;2022-09-09T10:17:03;11.73;;;10.50;;
20073;SDS011;10197;54.282;10.078;2022-09-09T10:19:36;12.35;;;11.13;;
20073;SDS011;10197;54.282;10.078;2022-09-09T10:22:19;12.55;;;9.57;;
20073;SDS011;10197;54.282;10.078;2022-09-09T10:28:09;8.00;;;6.22;;
20073;SDS011;10197;54.282;10.078;2022-09-09T10:30:46;9.68;;;7.13;;
20073;SDS011;10197;54.282;10.078;2022-09-09T10:33:28;6.80;;;6.18;;
20073;SDS011;10197;54.282;10.078;2022-09-09T10:36:01;6.00;;;5.40;;
20073;SDS011;10197;54.282;10.078;2022-09-09T10:38:38;6.35;;;4.68;;
20073;SDS011;10197;54.282;10.078;2022-09-09T10:41:12;5.43;;;4.20;;
20073;SDS011;10197;54.282;10.078;2022-09-09T10:43:46;5.07;;;3.95;;
20073;SDS011;10197;54.282;10.078;2022-09-09T10:46:26;3.97;;;3.25;;
20073;SDS011;10197;54.282;10.078;2022-09-09T10:49:02;5.15;;;4.00;;
20073;SDS011;10197;54.282;10.078;2022-09-09T10:51:45;6.18;;;3.20;;
20073;SDS011;10197;54.282;10.078;2022-09-09T10:54:28;3.42;;;2.72;;
20073;SDS011;10197;54.282;10.078;2022-09-09T10:57:03;3.53;;;2.22;;
20073;SDS011;10197;54.282;10.078;2022-09-09T10:59:33;3.63;;;2.28;;
20073;SDS011;10197;54.282;10.078;2022-09-09T11:02:05;2.83;;;2.10;;
20073;SDS011;10197;54.282;10.078;2022-09-09T11:04:40;3.58;;;2.67;;
20073;SDS011;10197;54.282;10.078;2022-09-09T11:07:10;2.92;;;1.80;;
20073;SDS011;10197;54.282;10.078;2022-09-09T11:09:40;3.65;;;1.67;;
20073;SDS011;10197;54.282;10.078;2022-09-09T11:12:09;2.67;;;1.85;;
20073;SDS011;10197;54.282;10.078;2022-09-09T11:14:41;4.70;;;1.80;;
20073;SDS011;10197;54.282;10.078;2022-09-09T11:17:10;1.90;;;1.50;;
20073;SDS011;10197;54.282;10.078;2022-09-09T11:19:41;2.58;;;1.60;;
20073;SDS011;10197;54.282;10.078;2022-09-09T11:22:13;3.65;;;2.20;;
20073;SDS011;10197;54.282;10.078;2022-09-09T11:24:44;3.47;;;1.83;;
20073;SDS011;10197;54.282;10.078;2022-09-09T11:27:16;2.05;;;1.40;;
20073;SDS011;10197;54.282;10.078;2022-09-09T11:30:02;3.72;;;1.67;;
20073;SDS011;10197;54.282;10.078;2022-09-09T11:32:49;1.42;;;1.20;;
20073;SDS011;10197;54.282;10.078;2022-09-09T11:35:40;3.25;;;1.20;;
20073;SDS011;10197;54.282;10.078;2022-09-09T11:38:15;5.00;;;1.52;;
20073;SDS011;10197;54.282;10.078;2022-09-09T11:40:45;4.30;;;1.45;;
20073;SDS011;10197;54.282;10.078;2022-09-09T11:43:13;2.88;;;1.40;;
20073;SDS011;10197;54.282;10.078;2022-09-09T11:45:43;2.08;;;1.63;;
20073;SDS011;10197;54.282;10.078;2022-09-09T11:48:25;6.28;;;1.65;;
20073;SDS011;10197;54.282;10.078;2022-09-09T11:51:01;3.90;;;2.03;;
20073;SDS011;10197;54.282;10.078;2022-09-09T11:53:31;7.15;;;2.10;;
20073;SDS011;10197;54.282;10.078;2022-09-09T11:58:55;3.33;;;1.67;;
20073;SDS011;10197;54.282;10.078;2022-09-09T12:01:28;7.60;;;1.77;;
20073;SDS011;10197;54.282;10.078;2022-09-09T12:04:04;4.03;;;1.80;;
20073;SDS011;10197;54.282;10.078;2022-09-09T12:06:43;1.67;;;1.35;;
20073;SDS011;10197;54.282;10.078;2022-09-09T12:09:16;2.85;;;1.33;;
20073;SDS011;10197;54.282;10.078;2022-09-09T12:11:45;3.45;;;1.65;;
20073;SDS011;10197;54.282;10.078;2022-09-09T12:14:18;1.98;;;1.70;;
20073;SDS011;10197;54.282;10.078;2022-09-09T12:16:46;2.38;;;1.17;;
20073;SDS011;10197;54.282;10.078;2022-09-09T12:19:14;3.05;;;1.35;;
20073;SDS011;10197;54.282;10.078;2022-09-09T12:21:46;4.43;;;1.30;;
20073;SDS011;10197;54.282;10.078;2022-09-09T12:24:18;2.75;;;1.20;;
20073;SDS011;10197;54.282;10.078;2022-09-09T12:26:51;2.38;;;1.17;;
20073;SDS011;10197;54.282;10.078;2022-09-09T12:29:23;5.00;;;1.10;;
20073;SDS011;10197;54.282;10.078;2022-09-09T12:31:54;1.25;;;1.13;;
20073;SDS011;10197;54.282;10.078;2022-09-09T12:34:29;2.33;;;1.30;;
20073;SDS011;10197;54.282;10.078;2022-09-09T12:37:04;2.38;;;1.10;;
20073;SDS011;10197;54.282;10.078;2022-09-09T12:39:33;2.00;;;1.20;;
20073;SDS011;10197;54.282;10.078;2022-09-09T12:42:02;1.98;;;1.10;;
20073;SDS011;10197;54.282;10.078;2022-09-09T12:44:29;2.50;;;1.38;;
20073;SDS011;10197;54.282;10.078;2022-09-09T12:46:58;1.42;;;1.08;;
20073;SDS011;10197;54.282;10.078;2022-09-09T12:49:28;2.63;;;1.23;;
20073;SDS011;10197;54.282;10.078;2022-09-09T12:52:00;2.15;;;1.23;;
20073;SDS011;10197;54.282;10.078;2022-09-09T12:54:30;2.20;;;1.10;;
20073;SDS011;10197;54.282;10.078;2022-09-09T12:56:57;2.58;;;0.90;;
20073;SDS011;10197;54.282;10.078;2022-09-09T12:59:25;2.08;;;1.10;;
20073;SDS011;10197;54.282;10.078;2022-09-09T13:01:56;2.20;;;1.10;;
20073;SDS011;10197;54.282;10.078;2022-09-09T13:04:23;2.97;;;1.77;;
20073;SDS011;10197;54.282;10.078;2022-09-09T13:06:50;2.45;;;1.30;;
20073;SDS011;10197;54.282;10.078;2022-09-09T13:09:19;1.13;;;1.00;;
20073;SDS011;10197;54.282;10.078;2022-09-09T13:11:47;2.13;;;0.93;;
20073;SDS011;10197;54.282;10.078;2022-09-09T13:14:16;4.97;;;1.15;;
20073;SDS011;10197;54.282;10.078;2022-09-09T13:16:54;2.92;;;1.00;;
20073;SDS011;10197;54.282;10.078;2022-09-09T13:19:21;2.30;;;1.10;;
20073;SDS011;10197;54.282;10.078;2022-09-09T13:21:51;3.20;;;1.30;;
20073;SDS011;10197;54.282;10.078;2022-09-09T13:24:28;2.92;;;1.00;;
20073;SDS011;10197;54.282;10.078;2022-09-09T13:26:57;2.97;;;1.40;;
20073;SDS011;10197;54.282;10.078;2022-09-09T13:29:27;2.38;;;1.00;;
20073;SDS011;10197;54.282;10.078;2022-09-09T13:31:54;3.00;;;1.20;;
20073;SDS011;10197;54.282;10.078;2022-09-09T13:34:31;1.80;;;1.00;;
20073;SDS011;10197;54.282;10.078;2022-09-09T13:37:01;2.55;;;1.10;;
20073;SDS011;10197;54.282;10.078;2022-09-09T13:39:32;1.25;;;0.98;;
20073;SDS011;10197;54.282;10.078;2022-09-09T13:42:00;2.30;;;1.10;;
20073;SDS011;10197;54.282;10.078;2022-09-09T13:44:28;2.67;;;1.48;;
20073;SDS011;10197;54.282;10.078;2022-09-09T13:47:02;1.95;;;1.08;;
20073;SDS011;10197;54.282;10.078;2022-09-09T13:49:30;3.47;;;1.10;;
20073;SDS011;10197;54.282;10.078;2022-09-09T13:52:08;2.33;;;1.20;;
20073;SDS011;10197;54.282;10.078;2022-09-09T13:54:38;2.47;;;1.10;;
20073;SDS011;10197;54.282;10.078;2022-09-09T13:57:05;3.78;;;1.30;;
20073;SDS011;10197;54.282;10.078;2022-09-09T13:59:32;3.08;;;1.08;;
20073;SDS011;10197;54.282;10.078;2022-09-09T14:01:59;3.53;;;1.10;;
20073;SDS011;10197;54.282;10.078;2022-09-09T14:04:26;2.05;;;0.80;;
20073;SDS011;10197;54.282;10.078;2022-09-09T14:06:54;2.53;;;1.73;;
20073;SDS011;10197;54.282;10.078;2022-09-09T14:09:22;3.35;;;1.20;;
20073;SDS011;10197;54.282;10.078;2022-09-09T14:11:50;5.10;;;1.42;;
20073;SDS011;10197;54.282;10.078;2022-09-09T14:14:16;2.75;;;1.08;;
20073;SDS011;10197;54.282;10.078;2022-09-09T14:16:44;3.70;;;0.93;;
20073;SDS011;10197;54.282;10.078;2022-09-09T14:19:10;2.50;;;1.20;;
20073;SDS011;10197;54.282;10.078;2022-09-09T14:21:37;3.63;;;1.13;;
20073;SDS011;10197;54.282;10.078;2022-09-09T14:24:04;3.72;;;1.13;;
20073;SDS011;10197;54.282;10.078;2022-09-09T14:26:31;2.63;;;1.05;;
20073;SDS011;10197;54.282;10.078;2022-09-09T14:28:59;4.82;;;1.10;;
20073;SDS011;10197;54.282;10.078;2022-09-09T14:31:26;2.67;;;0.95;;
20073;SDS011;10197;54.282;10.078;2022-09-09T14:33:53;3.80;;;1.25;;
20073;SDS011;10197;54.282;10.078;2022-09-09T14:36:20;2.58;;;0.93;;
20073;SDS011;10197;54.282;10.078;2022-09-09T14:38:48;3.92;;;1.50;;
20073;SDS011;10197;54.282;10.078;2022-09-09T14:41:15;3.13;;;1.50;;
20073;SDS011;10197;54.282;10.078;2022-09-09T14:43:43;2.40;;;1.25;;
20073;SDS011;10197;54.282;10.078;2022-09-09T14:46:12;2.17;;;1.00;;
20073;SDS011;10197;54.282;10.078;2022-09-09T14:48:41;2.38;;;1.08;;
20073;SDS011;10197;54.282;10.078;2022-09-09T14:51:09;4.07;;;1.30;;
20073;SDS011;10197;54.282;10.078;2022-09-09T14:53:37;3.28;;;1.48;;
20073;SDS011;10197;54.282;10.078;2022-09-09T14:56:05;4.65;;;1.45;;
20073;SDS011;10197;54.282;10.078;2022-09-09T14:58:33;4.53;;;1.90;;
20073;SDS011;10197;54.282;10.078;2022-09-09T15:56:53;1.95;;;1.30;;
20073;SDS011;10197;54.282;10.078;2022-09-09T15:59:21;1.20;;;1.10;;
20073;SDS011;10197;54.282;10.078;2022-09-09T16:01:48;2.10;;;1.45;;
20073;SDS011;10197;54.282;10.078;2022-09-09T16:04:16;1.95;;;1.40;;
20073;SDS011;10197;54.282;10.078;2022-09-09T16:06:48;1.52;;;1.20;;
20073;SDS011;10197;54.282;10.078;2022-09-09T16:09:16;2.60;;;1.33;;
20073;SDS011;10197;54.282;10.078;2022-09-09T16:11:43;1.42;;;1.33;;
20073;SDS011;10197;54.282;10.078;2022-09-09T16:14:12;3.03;;;2.72;;
20073;SDS011;10197;54.282;10.078;2022-09-09T16:16:40;2.20;;;2.00;;
20073;SDS011;10197;54.282;10.078;2022-09-09T16:19:07;1.70;;;1.55;;
20073;SDS011;10197;54.282;10.078;2022-09-09T16:21:36;3.95;;;2.55;;
20073;SDS011;10197;54.282;10.078;2022-09-09T16:24:05;2.47;;;1.80;;
20073;SDS011;10197;54.282;10.078;2022-09-09T16:26:33;3.53;;;1.73;;
20073;SDS011;10197;54.282;10.078;2022-09-09T16:29:02;2.47;;;1.42;;
20073;SDS011;10197;54.282;10.078;2022-09-09T16:31:30;2.03;;;1.27;;
20073;SDS011;10197;54.282;10.078;2022-09-09T16:33:58;1.50;;;1.20;;
20073;SDS011;10197;54.282;10.078;2022-09-09T16:36:26;1.90;;;1.20;;